No particular awareness of the weather is required.    There are no Weather-warnings


Meteo18 Weather Cam more information Meteo18 Weather Cam


Thunder radar more information blitzortung!


Rain radar more information rain snow radar


Visit our other weather sites:

Template documentation
and downloads

And another site



Weather Underground History page Text

Daily Summary for October 19, 2017 Units:  Metric    English   Both
« Previous Day
Next Day »
Daily Weekly Monthly Yearly Custom
  High: Low: Average:
Temperature: 21.7 °C 12.2 °C 16.6 °C
Dew Point: 14.2 °C 10.8 °C 12.7 °C
Humidity: 93 % 59 % 79 %
Wind Speed: 22.5 km/h 0.0 km/h 4.6 km/h
Wind Gust: 27.4 km/h - -
Wind:- - SSW
Pressure: 1012.1 hPa 1010.0 hPa -
Precipitation: 0.0 mm    
Historical Graphs
 
 
Tabular Data for October 19, 2017
Time Temperature Dew Point Pressure Wind Wind Speed Wind Gust Humidity Rainfall Rate (Hourly)
00:02 14.1 °C 11.8 °C 1012.1 hPa Calm   1.6 km/h 86 % 0.0 mm
00:07 14.2 °C 11.9 °C 1012.1 hPa Calm   1.6 km/h 86 % 0.0 mm
00:12 14.2 °C 11.5 °C 1012.1 hPa Calm   1.6 km/h 84 % 0.0 mm
00:17 13.9 °C 11.4 °C 1011.7 hPa Calm   1.6 km/h 85 % 0.0 mm
00:22 14.0 °C 11.7 °C 1011.7 hPa Calm   1.6 km/h 86 % 0.0 mm
00:32 14.3 °C 11.8 °C 1011.7 hPa NNE 1.6 km/h 1.6 km/h 85 % 0.0 mm
00:42 14.4 °C 11.7 °C 1011.7 hPa Calm   1.6 km/h 84 % 0.0 mm
00:47 14.2 °C 11.5 °C 1011.7 hPa Calm   1.6 km/h 84 % 0.0 mm
00:52 13.8 °C 11.3 °C 1011.7 hPa Calm   1.6 km/h 85 % 0.0 mm
00:57 13.6 °C 11.5 °C 1011.7 hPa Calm   1.6 km/h 87 % 0.0 mm
01:02 13.6 °C 11.6 °C 1011.7 hPa Calm   1.6 km/h 88 % 0.0 mm
01:12 13.4 °C 11.6 °C 1011.7 hPa Calm     89 % 0.0 mm
01:17 13.4 °C 11.5 °C 1011.7 hPa Calm   1.6 km/h 88 % 0.0 mm
01:22 13.3 °C 11.4 °C 1011.7 hPa Calm   1.6 km/h 88 % 0.0 mm
01:32 13.7 °C 11.7 °C 1011.7 hPa North 1.6 km/h 3.2 km/h 88 % 0.0 mm
01:42 13.3 °C 11.2 °C 1011.7 hPa NW 1.6 km/h 3.2 km/h 87 % 0.0 mm
01:47 13.2 °C 11.4 °C 1011.7 hPa NW 1.6 km/h 1.6 km/h 89 % 0.0 mm
01:52 13.2 °C 11.4 °C 1011.7 hPa Calm   1.6 km/h 89 % 0.0 mm
02:02 13.2 °C 11.3 °C 1011.7 hPa Calm   1.6 km/h 88 % 0.0 mm
02:07 13.0 °C 11.1 °C 1011.7 hPa Calm   1.6 km/h 88 % 0.0 mm
02:12 12.9 °C 11.1 °C 1011.4 hPa Calm   1.6 km/h 89 % 0.0 mm
02:17 13.1 °C 11.5 °C 1011.4 hPa Calm   1.6 km/h 90 % 0.0 mm
02:22 13.1 °C 11.3 °C 1011.7 hPa Calm   1.6 km/h 89 % 0.0 mm
02:32 12.8 °C 11.0 °C 1011.4 hPa Calm   1.6 km/h 89 % 0.0 mm
02:37 12.8 °C 11.0 °C 1011.7 hPa Calm   1.6 km/h 89 % 0.0 mm
02:42 13.0 °C 11.4 °C 1011.4 hPa North 1.6 km/h 1.6 km/h 90 % 0.0 mm
02:47 13.2 °C 11.4 °C 1011.4 hPa NNE 1.6 km/h 3.2 km/h 89 % 0.0 mm
02:52 13.1 °C 11.2 °C 1011.4 hPa Calm   3.2 km/h 88 % 0.0 mm
02:57 12.8 °C 10.9 °C 1011.4 hPa Calm   3.2 km/h 88 % 0.0 mm
03:02 12.6 °C 10.8 °C 1011.4 hPa Calm   3.2 km/h 89 % 0.0 mm
03:12 12.7 °C 11.3 °C 1011.4 hPa Calm   1.6 km/h 91 % 0.0 mm
03:17 12.8 °C 11.2 °C 1011.4 hPa Calm   1.6 km/h 90 % 0.0 mm
03:22 12.9 °C 11.3 °C 1011.4 hPa Calm   1.6 km/h 90 % 0.0 mm
03:27 12.8 °C 10.9 °C 1011.4 hPa Calm   1.6 km/h 88 % 0.0 mm
03:32 12.6 °C 10.8 °C 1011.4 hPa Calm   1.6 km/h 89 % 0.0 mm
03:37 12.6 °C 11.0 °C 1011.4 hPa Calm   1.6 km/h 90 % 0.0 mm
03:42 12.7 °C 11.1 °C 1011.1 hPa Calm   1.6 km/h 90 % 0.0 mm
03:47 12.8 °C 11.2 °C 1011.1 hPa North 1.6 km/h 3.2 km/h 90 % 0.0 mm
03:52 12.9 °C 11.3 °C 1011.1 hPa Calm   3.2 km/h 90 % 0.0 mm
04:02 12.8 °C 11.0 °C 1011.1 hPa Calm   3.2 km/h 89 % 0.0 mm
04:12 12.2 °C 10.8 °C 1011.1 hPa WNW 1.6 km/h 3.2 km/h 91 % 0.0 mm
04:17 12.3 °C 11.0 °C 1011.1 hPa Calm   3.2 km/h 92 % 0.0 mm
04:22 12.6 °C 11.5 °C 1011.1 hPa Calm   3.2 km/h 93 % 0.0 mm
04:32 13.2 °C 11.6 °C 1011.1 hPa North 1.6 km/h 1.6 km/h 90 % 0.0 mm
04:37 13.1 °C 11.0 °C 1011.1 hPa Calm   1.6 km/h 87 % 0.0 mm
04:42 12.9 °C 11.1 °C 1011.1 hPa WNW 1.6 km/h 1.6 km/h 89 % 0.0 mm
04:47 12.6 °C 11.0 °C 1011.1 hPa Calm   1.6 km/h 90 % 0.0 mm
04:52 12.9 °C 11.5 °C 1011.1 hPa Calm   1.6 km/h 91 % 0.0 mm
04:57 12.9 °C 11.3 °C 1011.1 hPa Calm   1.6 km/h 90 % 0.0 mm
05:02 12.8 °C 11.2 °C 1011.1 hPa Calm   1.6 km/h 90 % 0.0 mm
05:12 12.8 °C 11.2 °C 1011.1 hPa Calm   1.6 km/h 90 % 0.0 mm
05:22 12.6 °C 11.2 °C 1011.1 hPa Calm     91 % 0.0 mm
05:32 12.6 °C 11.3 °C 1011.1 hPa Calm     92 % 0.0 mm
05:37 12.8 °C 11.5 °C 1010.7 hPa Calm     92 % 0.0 mm
05:42 12.9 °C 11.6 °C 1010.7 hPa Calm     92 % 0.0 mm
05:47 13.1 °C 11.7 °C 1010.7 hPa Calm     91 % 0.0 mm
05:52 13.2 °C 11.6 °C 1010.7 hPa Calm     90 % 0.0 mm
05:57 12.9 °C 11.1 °C 1010.7 hPa Calm     89 % 0.0 mm
06:02 12.6 °C 11.0 °C 1010.7 hPa Calm     90 % 0.0 mm
06:07 12.8 °C 11.5 °C 1010.7 hPa Calm     92 % 0.0 mm
06:12 12.8 °C 11.4 °C 1010.7 hPa Calm     91 % 0.0 mm
06:17 12.9 °C 11.6 °C 1010.7 hPa Calm     92 % 0.0 mm
06:22 13.0 °C 11.7 °C 1010.7 hPa Calm     92 % 0.0 mm
06:32 13.3 °C 11.7 °C 1010.7 hPa Calm     90 % 0.0 mm
06:37 13.4 °C 11.8 °C 1011.1 hPa Calm     90 % 0.0 mm
06:42 13.1 °C 11.3 °C 1011.1 hPa Calm     89 % 0.0 mm
06:47 12.9 °C 11.5 °C 1011.1 hPa Calm     91 % 0.0 mm
06:57 13.2 °C 11.9 °C 1011.1 hPa Calm     92 % 0.0 mm
07:02 13.4 °C 12.1 °C 1011.1 hPa Calm     92 % 0.0 mm
07:12 13.8 °C 12.2 °C 1011.1 hPa Calm     90 % 0.0 mm
07:17 13.8 °C 12.2 °C 1011.1 hPa Calm     90 % 0.0 mm
07:22 13.8 °C 12.2 °C 1011.1 hPa Calm     90 % 0.0 mm
07:27 13.9 °C 12.1 °C 1011.1 hPa Calm     89 % 0.0 mm
07:32 13.9 °C 12.1 °C 1011.1 hPa Calm     89 % 0.0 mm
07:37 13.9 °C 12.1 °C 1011.1 hPa Calm     89 % 0.0 mm
07:42 13.9 °C 12.1 °C 1011.1 hPa Calm     89 % 0.0 mm
07:52 13.8 °C 12.0 °C 1011.1 hPa Calm     89 % 0.0 mm
07:57 13.9 °C 12.3 °C 1011.1 hPa Calm     90 % 0.0 mm
08:02 14.0 °C 12.2 °C 1011.4 hPa Calm     89 % 0.0 mm
08:12 14.2 °C 12.4 °C 1011.1 hPa Calm     89 % 0.0 mm
08:17 14.2 °C 12.2 °C 1011.4 hPa Calm     88 % 0.0 mm
08:22 14.2 °C 12.4 °C 1011.4 hPa Calm     89 % 0.0 mm
08:32 14.3 °C 12.3 °C 1011.4 hPa Calm   1.6 km/h 88 % 0.0 mm
08:37 14.2 °C 12.2 °C 1011.4 hPa Calm   1.6 km/h 88 % 0.0 mm
08:42 14.3 °C 12.5 °C 1011.4 hPa Calm   1.6 km/h 89 % 0.0 mm
08:47 14.4 °C 12.4 °C 1011.7 hPa Calm   3.2 km/h 88 % 0.0 mm
08:52 14.4 °C 12.4 °C 1011.7 hPa Calm   3.2 km/h 88 % 0.0 mm
08:57 14.3 °C 12.3 °C 1011.7 hPa Calm   3.2 km/h 88 % 0.0 mm
09:02 14.4 °C 12.4 °C 1011.7 hPa Calm   1.6 km/h 88 % 0.0 mm
09:07 14.4 °C 12.4 °C 1011.7 hPa Calm   3.2 km/h 88 % 0.0 mm
09:17 14.6 °C 12.6 °C 1011.7 hPa Calm   3.2 km/h 88 % 0.0 mm
09:22 14.7 °C 12.7 °C 1011.7 hPa Calm   3.2 km/h 88 % 0.0 mm
09:32 14.9 °C 12.9 °C 1011.7 hPa Calm   3.2 km/h 88 % 0.0 mm
09:37 15.0 °C 13.0 °C 1011.7 hPa SW 1.6 km/h 6.4 km/h 88 % 0.0 mm
09:42 15.2 °C 13.0 °C 1011.7 hPa SSW 6.4 km/h 6.4 km/h 87 % 0.0 mm
09:47 15.3 °C 13.0 °C 1012.1 hPa SSW 3.2 km/h 6.4 km/h 86 % 0.0 mm
09:52 15.5 °C 13.0 °C 1012.1 hPa Calm   8.0 km/h 85 % 0.0 mm
09:57 15.6 °C 13.1 °C 1012.1 hPa SSW 3.2 km/h 8.0 km/h 85 % 0.0 mm
10:02 15.7 °C 13.2 °C 1012.1 hPa SW 3.2 km/h 8.0 km/h 85 % 0.0 mm
10:12 15.9 °C 13.2 °C 1012.1 hPa Calm   8.0 km/h 84 % 0.0 mm
10:17 16.0 °C 13.3 °C 1012.1 hPa Calm   6.4 km/h 84 % 0.0 mm
10:22 16.2 °C 13.3 °C 1012.1 hPa SSW 1.6 km/h 6.4 km/h 83 % 0.0 mm
10:32 16.7 °C 13.4 °C 1012.1 hPa SSW 1.6 km/h 6.4 km/h 81 % 0.0 mm
10:37 16.8 °C 13.5 °C 1012.1 hPa Calm   4.8 km/h 81 % 0.0 mm
10:42 17.1 °C 13.6 °C 1012.1 hPa Calm   6.4 km/h 80 % 0.0 mm
10:52 17.3 °C 13.6 °C 1011.7 hPa SW 1.6 km/h 8.0 km/h 79 % 0.0 mm
10:57 17.4 °C 13.5 °C 1011.7 hPa SW 4.8 km/h 8.0 km/h 78 % 0.0 mm
11:02 17.8 °C 14.1 °C 1011.7 hPa SW 4.8 km/h 8.0 km/h 79 % 0.0 mm
11:07 18.2 °C 13.9 °C 1012.1 hPa SSW 3.2 km/h 8.0 km/h 76 % 0.0 mm
11:12 18.3 °C 13.8 °C 1012.1 hPa SSW 4.8 km/h 8.0 km/h 75 % 0.0 mm
11:17 18.6 °C 14.1 °C 1012.1 hPa SW 6.4 km/h 12.9 km/h 75 % 0.0 mm
11:22 18.8 °C 14.1 °C 1011.7 hPa SE 3.2 km/h 12.9 km/h 74 % 0.0 mm
11:27 18.9 °C 14.0 °C 1011.7 hPa SW 4.8 km/h 14.5 km/h 73 % 0.0 mm
11:32 19.0 °C 14.0 °C 1011.7 hPa SW 4.8 km/h 14.5 km/h 73 % 0.0 mm
11:42 19.4 °C 14.0 °C 1011.7 hPa SE 4.8 km/h 14.5 km/h 71 % 0.0 mm
11:52 20.1 °C 14.2 °C 1011.7 hPa SSW 1.6 km/h 14.5 km/h 69 % 0.0 mm
11:57 20.1 °C 13.8 °C 1011.7 hPa South 4.8 km/h 12.9 km/h 67 % 0.0 mm
12:02 20.1 °C 13.8 °C 1011.7 hPa SSW 8.0 km/h 12.9 km/h 67 % 0.0 mm
12:12 20.4 °C 14.1 °C 1011.4 hPa SSW 8.0 km/h 14.5 km/h 67 % 0.0 mm
12:17 20.5 °C 13.7 °C 1011.4 hPa SW 3.2 km/h 14.5 km/h 65 % 0.0 mm
12:22 20.5 °C 13.7 °C 1011.4 hPa SSW 6.4 km/h 14.5 km/h 65 % 0.0 mm
12:32 20.5 °C 13.9 °C 1011.4 hPa SSW 9.7 km/h 16.1 km/h 66 % 0.0 mm
12:42 20.7 °C 13.6 °C 1011.4 hPa SSW 6.4 km/h 14.5 km/h 64 % 0.0 mm
12:52 20.7 °C 13.6 °C 1011.4 hPa SSW 3.2 km/h 17.7 km/h 64 % 0.0 mm
12:57 20.5 °C 13.7 °C 1011.4 hPa South 6.4 km/h 12.9 km/h 65 % 0.0 mm
13:02 20.3 °C 13.3 °C 1011.4 hPa SSW 3.2 km/h 12.9 km/h 64 % 0.0 mm
13:12 20.1 °C 13.3 °C 1011.4 hPa SSW 4.8 km/h 12.9 km/h 65 % 0.0 mm
13:17 19.9 °C 13.1 °C 1011.4 hPa SE 4.8 km/h 12.9 km/h 65 % 0.0 mm
13:22 20.0 °C 13.0 °C 1011.4 hPa SSW 9.7 km/h 12.9 km/h 64 % 0.0 mm
13:32 20.1 °C 13.1 °C 1011.4 hPa SSW 6.4 km/h 14.5 km/h 64 % 0.0 mm
13:42 20.4 °C 13.1 °C 1011.4 hPa SSE 3.2 km/h 14.5 km/h 63 % 0.0 mm
13:47 20.6 °C 13.6 °C 1011.1 hPa East 6.4 km/h 14.5 km/h 64 % 0.0 mm
13:52 20.7 °C 13.2 °C 1011.1 hPa South 3.2 km/h 14.5 km/h 62 % 0.0 mm
14:02 20.8 °C 13.3 °C 1011.1 hPa SSW 9.7 km/h 12.9 km/h 62 % 0.0 mm
14:07 20.9 °C 13.3 °C 1011.1 hPa SSW 6.4 km/h 12.9 km/h 62 % 0.0 mm
14:12 21.3 °C 13.7 °C 1011.1 hPa SSW 1.6 km/h 12.9 km/h 62 % 0.0 mm
14:17 21.6 °C 13.5 °C 1010.7 hPa SSE 11.3 km/h 14.5 km/h 60 % 0.0 mm
14:22 21.7 °C 13.3 °C 1010.7 hPa South 4.8 km/h 14.5 km/h 59 % 0.0 mm
14:27 21.7 °C 13.3 °C 1010.7 hPa SSW 3.2 km/h 14.5 km/h 59 % 0.0 mm
14:32 21.6 °C 13.2 °C 1010.4 hPa South 11.3 km/h 16.1 km/h 59 % 0.0 mm
14:37 21.4 °C 13.3 °C 1010.7 hPa SE 6.4 km/h 14.5 km/h 60 % 0.0 mm
14:42 21.2 °C 13.1 °C 1010.7 hPa SSW 4.8 km/h 14.5 km/h 60 % 0.0 mm
14:47 21.1 °C 13.0 °C 1010.7 hPa ESE 8.0 km/h 16.1 km/h 60 % 0.0 mm
14:52 21.0 °C 13.2 °C 1010.7 hPa SW 8.0 km/h 16.1 km/h 61 % 0.0 mm
14:57 20.9 °C 12.8 °C 1010.7 hPa SSE 1.6 km/h 16.1 km/h 60 % 0.0 mm
15:07 20.8 °C 13.3 °C 1010.4 hPa SE 4.8 km/h 12.9 km/h 62 % 0.0 mm
15:12 20.8 °C 13.5 °C 1010.7 hPa SE 6.4 km/h 9.7 km/h 63 % 0.0 mm
15:17 20.8 °C 13.3 °C 1010.4 hPa SSW 1.6 km/h 9.7 km/h 62 % 0.0 mm
15:22 20.8 °C 13.3 °C 1010.4 hPa SE 4.8 km/h 9.7 km/h 62 % 0.0 mm
15:32 20.6 °C 13.3 °C 1010.4 hPa SSE 1.6 km/h 12.9 km/h 63 % 0.0 mm
15:37 20.4 °C 13.1 °C 1010.4 hPa SSW 3.2 km/h 12.9 km/h 63 % 0.0 mm
15:42 20.4 °C 13.4 °C 1010.4 hPa SSE 4.8 km/h 11.3 km/h 64 % 0.0 mm
15:47 20.3 °C 13.0 °C 1010.0 hPa Calm   11.3 km/h 63 % 0.0 mm
15:52 20.2 °C 12.9 °C 1010.4 hPa SSW 4.8 km/h 11.3 km/h 63 % 0.0 mm
15:57 20.2 °C 12.9 °C 1010.4 hPa SSE 4.8 km/h 12.9 km/h 63 % 0.0 mm
16:02 20.3 °C 13.0 °C 1010.4 hPa SSW 4.8 km/h 12.9 km/h 63 % 0.0 mm
16:07 20.4 °C 13.1 °C 1010.4 hPa South 8.0 km/h 12.9 km/h 63 % 0.0 mm
16:12 20.3 °C 13.0 °C 1010.4 hPa SSW 4.8 km/h 12.9 km/h 63 % 0.0 mm
16:17 20.4 °C 13.4 °C 1010.0 hPa SW 6.4 km/h 9.7 km/h 64 % 0.0 mm
16:22 20.4 °C 13.4 °C 1010.0 hPa SSW 4.8 km/h 9.7 km/h 64 % 0.0 mm
16:27 20.4 °C 13.4 °C 1010.0 hPa South 9.7 km/h 12.9 km/h 64 % 0.0 mm
16:32 20.4 °C 13.4 °C 1010.0 hPa South 4.8 km/h 12.9 km/h 64 % 0.0 mm
16:37 20.3 °C 13.5 °C 1010.0 hPa SW 3.2 km/h 12.9 km/h 65 % 0.0 mm
16:42 20.2 °C 13.4 °C 1010.4 hPa SSW 4.8 km/h 11.3 km/h 65 % 0.0 mm
16:47 20.2 °C 13.4 °C 1010.0 hPa SSW 4.8 km/h 8.0 km/h 65 % 0.0 mm
16:52 20.1 °C 13.3 °C 1010.0 hPa SSW 3.2 km/h 8.0 km/h 65 % 0.0 mm
16:57 20.1 °C 13.5 °C 1010.0 hPa SSW 6.4 km/h 8.0 km/h 66 % 0.0 mm
17:02 19.9 °C 13.4 °C 1010.4 hPa SSW 4.8 km/h 8.0 km/h 66 % 0.0 mm
17:07 19.9 °C 13.4 °C 1010.4 hPa SSW 4.8 km/h 8.0 km/h 66 % 0.0 mm
17:12 19.8 °C 13.5 °C 1010.4 hPa SW 6.4 km/h 8.0 km/h 67 % 0.0 mm
17:17 19.8 °C 13.5 °C 1010.4 hPa SW 4.8 km/h 11.3 km/h 67 % 0.0 mm
17:22 19.9 °C 13.4 °C 1010.4 hPa SW 6.4 km/h 11.3 km/h 66 % 0.0 mm
17:27 19.9 °C 13.6 °C 1010.4 hPa SW 8.0 km/h 17.7 km/h 67 % 0.0 mm
17:32 19.9 °C 13.6 °C 1010.4 hPa SW 11.3 km/h 17.7 km/h 67 % 0.0 mm
17:37 19.8 °C 13.7 °C 1010.4 hPa SW 9.7 km/h 19.3 km/h 68 % 0.0 mm
17:42 19.3 °C 14.1 °C 1010.7 hPa WSW 8.0 km/h 20.9 km/h 72 % 0.0 mm
17:47 18.9 °C 14.0 °C 1010.7 hPa SW 11.3 km/h 24.1 km/h 73 % 0.0 mm
17:52 18.7 °C 14.0 °C 1010.7 hPa WSW 22.5 km/h 24.1 km/h 74 % 0.0 mm
17:57 18.5 °C 14.0 °C 1010.7 hPa WSW 9.7 km/h 27.4 km/h 75 % 0.0 mm
18:02 18.4 °C 13.9 °C 1011.1 hPa SSW 12.9 km/h 27.4 km/h 75 % 0.0 mm
18:07 18.3 °C 13.8 °C 1010.7 hPa WSW 16.1 km/h 27.4 km/h 75 % 0.0 mm
18:12 18.3 °C 13.8 °C 1011.1 hPa SW 12.9 km/h 20.9 km/h 75 % 0.0 mm
18:17 18.3 °C 13.8 °C 1010.7 hPa WSW 11.3 km/h 20.9 km/h 75 % 0.0 mm
18:22 18.2 °C 13.7 °C 1011.1 hPa SSW 6.4 km/h 20.9 km/h 75 % 0.0 mm
18:32 18.2 °C 13.9 °C 1011.1 hPa SW 16.1 km/h 20.9 km/h 76 % 0.0 mm
18:37 18.1 °C 13.8 °C 1010.7 hPa South 6.4 km/h 17.7 km/h 76 % 0.0 mm
18:42 18.1 °C 13.8 °C 1011.1 hPa SW 6.4 km/h 19.3 km/h 76 % 0.0 mm
18:47 17.9 °C 13.8 °C 1011.1 hPa SW 9.7 km/h 19.3 km/h 77 % 0.0 mm
18:52 17.9 °C 13.8 °C 1011.1 hPa SW 9.7 km/h 14.5 km/h 77 % 0.0 mm
19:02 17.8 °C 13.9 °C 1011.1 hPa SSW 6.4 km/h 16.1 km/h 78 % 0.0 mm
19:07 17.7 °C 13.8 °C 1011.1 hPa SSW 6.4 km/h 16.1 km/h 78 % 0.0 mm
19:12 17.7 °C 13.8 °C 1011.1 hPa SW 6.4 km/h 16.1 km/h 78 % 0.0 mm
19:17 17.8 °C 13.7 °C 1011.1 hPa South 11.3 km/h 20.9 km/h 77 % 0.0 mm
19:22 17.9 °C 13.8 °C 1011.1 hPa SW 17.7 km/h 22.5 km/h 77 % 0.0 mm
19:32 18.1 °C 13.6 °C 1011.1 hPa WSW 11.3 km/h 25.7 km/h 75 % 0.0 mm
19:37 18.1 °C 13.8 °C 1011.1 hPa WSW 3.2 km/h 25.7 km/h 76 % 0.0 mm
19:42 18.1 °C 13.8 °C 1011.4 hPa WSW 9.7 km/h 24.1 km/h 76 % 0.0 mm
19:47 18.1 °C 13.8 °C 1011.4 hPa WSW 4.8 km/h 19.3 km/h 76 % 0.0 mm
19:52 18.1 °C 13.8 °C 1011.4 hPa West 3.2 km/h 24.1 km/h 76 % 0.0 mm
19:57 18.1 °C 13.8 °C 1011.4 hPa SW 12.9 km/h 24.1 km/h 76 % 0.0 mm
20:02 17.9 °C 13.6 °C 1011.4 hPa SW 11.3 km/h 24.1 km/h 76 % 0.0 mm
20:12 17.7 °C 13.6 °C 1011.4 hPa WSW 6.4 km/h 16.1 km/h 77 % 0.0 mm
20:17 17.6 °C 13.7 °C 1011.4 hPa SW 9.7 km/h 16.1 km/h 78 % 0.0 mm
20:22 17.4 °C 13.5 °C 1011.4 hPa SW 8.0 km/h 17.7 km/h 78 % 0.0 mm
20:32 17.6 °C 13.5 °C 1011.4 hPa SW 14.5 km/h 22.5 km/h 77 % 0.0 mm
20:37 17.6 °C 13.5 °C 1011.4 hPa SW 8.0 km/h 22.5 km/h 77 % 0.0 mm
20:42 17.6 °C 13.5 °C 1011.1 hPa SW 11.3 km/h 22.5 km/h 77 % 0.0 mm
20:52 17.7 °C 13.6 °C 1011.1 hPa SW 9.7 km/h 24.1 km/h 77 % 0.0 mm
20:57 17.5 °C 13.6 °C 1011.1 hPa SSW 6.4 km/h 24.1 km/h 78 % 0.0 mm
21:02 17.4 °C 13.5 °C 1011.1 hPa SW 8.0 km/h 20.9 km/h 78 % 0.0 mm
21:07 17.3 °C 13.6 °C 1011.1 hPa SSW 9.7 km/h 17.7 km/h 79 % 0.0 mm
21:12 17.2 °C 13.5 °C 1011.1 hPa SSW 8.0 km/h 17.7 km/h 79 % 0.0 mm
21:17 17.1 °C 13.6 °C 1011.1 hPa SW 9.7 km/h 17.7 km/h 80 % 0.0 mm
21:22 17.1 °C 13.6 °C 1011.1 hPa SW 9.7 km/h 20.9 km/h 80 % 0.0 mm
21:27 17.1 °C 13.6 °C 1011.1 hPa WSW 14.5 km/h 20.9 km/h 80 % 0.0 mm
21:32 17.2 °C 13.5 °C 1011.4 hPa SW 11.3 km/h 20.9 km/h 79 % 0.0 mm
21:37 17.2 °C 13.5 °C 1011.1 hPa SW 9.7 km/h 20.9 km/h 79 % 0.0 mm
21:42 17.2 °C 13.5 °C 1011.1 hPa SW 11.3 km/h 20.9 km/h 79 % 0.0 mm
21:47 17.2 °C 13.5 °C 1011.1 hPa SW 16.1 km/h 19.3 km/h 79 % 0.0 mm
21:52 17.1 °C 13.4 °C 1011.1 hPa SW 6.4 km/h 19.3 km/h 79 % 0.0 mm
21:57 17.0 °C 13.5 °C 1011.4 hPa SSW 14.5 km/h 19.3 km/h 80 % 0.0 mm
22:02 16.8 °C 13.3 °C 1011.4 hPa SSW 8.0 km/h 19.3 km/h 80 % 0.0 mm
22:07 16.7 °C 13.4 °C 1011.4 hPa SW 4.8 km/h 16.1 km/h 81 % 0.0 mm
22:12 16.6 °C 13.3 °C 1011.4 hPa SW 4.8 km/h 16.1 km/h 81 % 0.0 mm
22:17 16.5 °C 13.2 °C 1011.7 hPa SW 8.0 km/h 12.9 km/h 81 % 0.0 mm
22:22 16.5 °C 13.2 °C 1011.7 hPa SW 14.5 km/h 14.5 km/h 81 % 0.0 mm
22:27 16.5 °C 13.2 °C 1011.7 hPa SSW 8.0 km/h 17.7 km/h 81 % 0.0 mm
22:32 16.5 °C 13.0 °C 1011.7 hPa SSW 14.5 km/h 17.7 km/h 80 % 0.0 mm
22:37 16.6 °C 13.1 °C 1011.7 hPa SSW 8.0 km/h 19.3 km/h 80 % 0.0 mm
22:42 16.6 °C 13.1 °C 1011.7 hPa SW 4.8 km/h 19.3 km/h 80 % 0.0 mm
22:47 16.7 °C 13.2 °C 1012.1 hPa SSW 11.3 km/h 19.3 km/h 80 % 0.0 mm
22:52 16.6 °C 13.1 °C 1012.1 hPa SW 8.0 km/h 17.7 km/h 80 % 0.0 mm
22:57 16.4 °C 12.9 °C 1011.7 hPa SW 9.7 km/h 17.7 km/h 80 % 0.0 mm
23:02 16.3 °C 13.0 °C 1011.7 hPa SSW 8.0 km/h 17.7 km/h 81 % 0.0 mm
23:07 16.4 °C 12.9 °C 1011.7 hPa SW 20.9 km/h 20.9 km/h 80 % 0.0 mm
23:12 16.6 °C 12.9 °C 1011.7 hPa SW 8.0 km/h 22.5 km/h 79 % 0.0 mm
23:17 16.6 °C 12.9 °C 1011.7 hPa SW 12.9 km/h 22.5 km/h 79 % 0.0 mm
23:22 16.5 °C 12.8 °C 1011.7 hPa SW 14.5 km/h 22.5 km/h 79 % 0.0 mm
23:27 16.6 °C 12.9 °C 1011.7 hPa SSW 12.9 km/h 24.1 km/h 79 % 0.0 mm
23:37 16.6 °C 12.9 °C 1011.7 hPa SSW 9.7 km/h 25.7 km/h 79 % 0.0 mm
23:42 16.4 °C 12.9 °C 1011.7 hPa SW 14.5 km/h 22.5 km/h 80 % 0.0 mm
23:47 16.3 °C 12.8 °C 1011.7 hPa South 14.5 km/h 19.3 km/h 80 % 0.0 mm
23:52 16.2 °C 12.9 °C 1011.7 hPa SW 11.3 km/h 22.5 km/h 81 % 0.0 mm
23:57 16.2 °C 12.9 °C 1011.7 hPa SSW 11.3 km/h 22.5 km/h 81 % 0.0 mm
Meteo18
Compliments of Weather Underground - 4 mb

Script developed by  Jim McMurry - jmcmurry@mwt.net Adapted for the template by  Wim van der Kuil - Leuven-Template.eu

You find our weather info also at:

European Weather Network

Weather Underground

Equipment we use:

Weather-station
Davis Vue

Weather-program
Meteohub

Weather-server
Raspberry PI 2 B+

Provider
1 and 1

Davis Vue

Meteohub

Raspberry PI 2 B+

1 and 1